Time;durP1;ratioP1;P1;durP2;ratioP2;P2;SDS_P1;SDS_P2;PMS_P1;PMS_P2;Temp;Humidity;BMP_temperature;BMP_pressure;BME280_temperature;BME280_humidity;BME280_pressure;Samples;Min_cycle;Max_cycle;Signal;HPM_P1;HPM_P2
2022/03/20 00:00:38;;;;;;;23.40;16.07;;;5.00;92.60;;;;;;4982949;28;20624;-62
2022/03/20 00:03:07;;;;;;;23.17;16.27;;;5.00;95.30;;;;;;4982090;28;20214;-63
2022/03/20 00:05:40;;;;;;;23.57;16.57;;;4.90;99.90;;;;;;4998117;28;20191;-62
2022/03/20 00:08:12;;;;;;;27.40;15.97;;;4.80;99.90;;;;;;4970716;28;20202;-62
2022/03/20 00:10:55;;;;;;;27.97;17.70;;;4.80;99.90;;;;;;4997181;28;20275;-63
2022/03/20 00:13:26;;;;;;;23.57;17.17;;;4.70;99.90;;;;;;4983021;28;20214;-62
2022/03/20 00:15:57;;;;;;;24.13;15.87;;;4.70;99.90;;;;;;4998313;28;20233;-63
2022/03/20 00:18:26;;;;;;;28.93;17.67;;;4.60;99.90;;;;;;4988439;28;20233;-64
2022/03/20 00:20:56;;;;;;;28.20;16.53;;;4.60;99.90;;;;;;4988426;28;20260;-62
2022/03/20 00:23:28;;;;;;;23.57;16.83;;;4.60;99.90;;;;;;4988987;28;20261;-62
2022/03/20 00:25:56;;;;;;;24.20;16.07;;;4.70;63.20;;;;;;4982588;28;20202;-62
2022/03/20 00:28:26;;;;;;;23.17;15.97;;;4.70;24.30;;;;;;4988807;28;20213;-62
2022/03/20 00:30:58;;;;;;;30.03;17.67;;;4.60;8.60;;;;;;4982007;28;20281;-63
2022/03/20 00:33:27;;;;;;;24.77;16.67;;;4.70;1.00;;;;;;4981842;28;20209;-63
2022/03/20 00:36:01;;;;;;;28.97;17.37;;;4.70;1.00;;;;;;4996341;28;20368;-63
2022/03/20 00:38:38;;;;;;;27.23;16.47;;;4.60;1.00;;;;;;4997785;28;20204;-63
2022/03/20 00:41:05;;;;;;;26.87;17.80;;;4.60;1.00;;;;;;4988344;28;20210;-62
2022/03/20 00:43:31;;;;;;;26.63;16.60;;;4.60;1.00;;;;;;4988377;28;20329;-62
2022/03/20 00:45:58;;;;;;;27.13;15.97;;;4.60;1.00;;;;;;4986494;28;20201;-62
2022/03/20 00:48:25;;;;;;;24.87;16.83;;;4.50;1.00;;;;;;4996197;28;20252;-63
2022/03/20 00:50:52;;;;;;;21.60;15.60;;;4.60;1.00;;;;;;4981632;28;20189;-62
2022/03/20 00:53:24;;;;;;;24.57;15.07;;;4.70;1.00;;;;;;4971781;28;20210;-62
2022/03/20 00:55:51;;;;;;;26.67;16.47;;;4.60;1.00;;;;;;4982981;28;20239;-62
2022/03/20 00:58:17;;;;;;;26.33;16.83;;;4.60;1.00;;;;;;4987732;28;20561;-62
2022/03/20 01:00:44;;;;;;;25.10;15.90;;;4.50;1.00;;;;;;4988402;28;20333;-62
2022/03/20 01:03:11;;;;;;;25.70;16.47;;;4.70;1.00;;;;;;4987141;28;20206;-62
2022/03/20 01:05:39;;;;;;;22.00;15.37;;;4.60;1.00;;;;;;4981594;28;20260;-62
2022/03/20 01:08:08;;;;;;;23.77;16.13;;;4.50;1.00;;;;;;4997537;28;20214;-62
2022/03/20 01:10:35;;;;;;;22.63;15.87;;;4.60;1.00;;;;;;4981187;28;21175;-62
2022/03/20 01:13:05;;;;;;;21.60;14.80;;;4.50;1.00;;;;;;4986522;28;20198;-62
2022/03/20 01:15:32;;;;;;;25.73;16.23;;;4.60;1.00;;;;;;4980225;28;20232;-62
2022/03/20 01:18:04;;;;;;;23.27;16.47;;;4.50;1.00;;;;;;4996246;28;20209;-63
2022/03/20 01:20:31;;;;;;;22.20;16.07;;;4.50;1.00;;;;;;4979857;28;20193;-64
2022/03/20 01:22:58;;;;;;;23.67;15.77;;;4.50;1.00;;;;;;4987797;28;20625;-62
2022/03/20 01:25:31;;;;;;;23.97;15.67;;;4.50;1.00;;;;;;4996625;28;20214;-63
2022/03/20 01:27:58;;;;;;;25.23;16.30;;;4.50;1.00;;;;;;4984339;28;20320;-63
2022/03/20 01:30:25;;;;;;;25.20;16.63;;;4.40;1.00;;;;;;4970553;28;20862;-62
2022/03/20 01:32:52;;;;;;;23.83;15.40;;;4.30;1.00;;;;;;4996075;28;20223;-63
2022/03/20 01:35:19;;;;;;;20.73;15.00;;;4.30;1.00;;;;;;4985154;28;20195;-63
2022/03/20 01:37:46;;;;;;;23.23;15.40;;;4.40;1.00;;;;;;4985005;28;20281;-63
2022/03/20 01:40:13;;;;;;;22.13;15.43;;;4.40;1.00;;;;;;4986622;28;20213;-63
2022/03/20 01:42:40;;;;;;;20.97;14.70;;;4.30;1.00;;;;;;4986807;28;20229;-63
2022/03/20 01:45:18;;;;;;;25.57;16.20;;;4.30;1.00;;;;;;4985322;28;20277;-63
2022/03/20 01:47:49;;;;;;;21.53;14.43;;;4.30;1.00;;;;;;4980549;28;20275;-63
2022/03/20 01:50:19;;;;;;;26.13;15.27;;;4.40;1.00;;;;;;4996494;28;20498;-63
2022/03/20 01:52:48;;;;;;;22.30;15.00;;;4.30;1.00;;;;;;4978669;28;20755;-63
2022/03/20 01:55:19;;;;;;;20.97;15.17;;;4.30;1.00;;;;;;4996152;28;20757;-63
2022/03/20 01:57:46;;;;;;;23.17;14.73;;;4.30;1.00;;;;;;4981130;28;20229;-63
2022/03/20 02:00:19;;;;;;;23.27;15.57;;;4.30;1.00;;;;;;4994720;28;20673;-63
2022/03/20 02:02:49;;;;;;;24.40;15.13;;;4.30;1.00;;;;;;4986164;28;20292;-63
2022/03/20 02:05:19;;;;;;;27.27;15.43;;;4.30;1.00;;;;;;4996111;28;20284;-64
2022/03/20 02:07:47;;;;;;;23.00;14.77;;;4.30;1.00;;;;;;4985183;28;20208;-63
2022/03/20 02:10:18;;;;;;;25.03;15.03;;;4.30;1.00;;;;;;4994173;28;20193;-64
2022/03/20 02:12:48;;;;;;;23.67;15.20;;;4.30;1.00;;;;;;4980469;28;20331;-63
2022/03/20 02:15:16;;;;;;;22.17;15.67;;;4.20;1.00;;;;;;4970088;28;20278;-62
2022/03/20 02:17:45;;;;;;;22.63;15.40;;;4.20;1.00;;;;;;4985074;28;20608;-64
2022/03/20 02:20:12;;;;;;;21.57;14.03;;;4.20;1.00;;;;;;4995600;28;20226;-62
2022/03/20 02:22:42;;;;;;;22.47;15.47;;;4.30;1.00;;;;;;4986002;28;20776;-63
2022/03/20 02:25:10;;;;;;;26.63;14.97;;;4.30;1.00;;;;;;4979153;28;20195;-62
2022/03/20 02:27:41;;;;;;;18.97;12.73;;;4.30;1.00;;;;;;4995613;28;20272;-62
2022/03/20 02:30:17;;;;;;;21.30;14.17;;;4.30;1.00;;;;;;4995307;28;20194;-62
2022/03/20 02:32:49;;;;;;;22.30;15.80;;;4.30;1.00;;;;;;4980295;28;20205;-62
2022/03/20 02:35:20;;;;;;;22.20;15.30;;;4.30;1.00;;;;;;4980197;28;20201;-61
2022/03/20 02:37:51;;;;;;;22.80;14.47;;;4.20;1.00;;;;;;4993798;28;20534;-63
2022/03/20 02:40:21;;;;;;;20.00;13.40;;;4.20;1.00;;;;;;4980403;28;20205;-63
2022/03/20 02:42:50;;;;;;;23.53;15.07;;;4.20;1.00;;;;;;4995405;28;20257;-63
2022/03/20 02:45:30;;;;;;;20.90;14.20;;;4.20;1.00;;;;;;4981146;28;20224;-63
2022/03/20 02:47:59;;;;;;;22.03;14.17;;;4.20;1.00;;;;;;4983626;28;20569;-62
2022/03/20 02:50:32;;;;;;;21.50;15.27;;;4.20;1.00;;;;;;4980244;28;20216;-62
2022/03/20 02:53:13;;;;;;;26.10;16.00;;;4.20;1.00;;;;;;4984092;28;20213;-62
2022/03/20 02:55:47;;;;;;;21.10;14.57;;;4.20;1.00;;;;;;4979803;28;20291;-62
2022/03/20 02:58:17;;;;;;;21.80;14.07;;;4.20;1.00;;;;;;4994926;28;20249;-62
2022/03/20 03:00:47;;;;;;;23.20;14.70;;;4.10;1.00;;;;;;4996111;28;20265;-62
2022/03/20 03:03:19;;;;;;;22.27;14.50;;;4.10;1.00;;;;;;4977699;28;20224;-63
2022/03/20 03:05:49;;;;;;;23.60;15.03;;;4.10;1.00;;;;;;4979883;28;20209;-63
2022/03/20 03:11:04;;;;;;;24.67;14.60;;;4.00;1.00;;;;;;4994656;28;20229;-62
2022/03/20 03:13:41;;;;;;;24.30;14.00;;;4.00;1.00;;;;;;4984521;28;20355;-62
2022/03/20 03:16:13;;;;;;;26.43;14.83;;;4.00;1.00;;;;;;4985734;28;20206;-62
2022/03/20 03:18:46;;;;;;;23.27;14.33;;;4.00;1.00;;;;;;4979524;28;20195;-62
2022/03/20 03:21:15;;;;;;;20.37;14.63;;;3.90;1.00;;;;;;4985499;28;20226;-62
2022/03/20 03:23:46;;;;;;;22.23;13.90;;;4.00;1.00;;;;;;4982525;28;20246;-62
2022/03/20 03:26:13;;;;;;;25.43;14.67;;;3.90;1.00;;;;;;4982431;28;20290;-63
2022/03/20 03:28:42;;;;;;;22.83;14.43;;;3.90;1.00;;;;;;4982519;28;20394;-63
2022/03/20 03:31:13;;;;;;;22.17;14.27;;;3.80;1.00;;;;;;4998464;28;20196;-63
2022/03/20 03:36:27;;;;;;;24.27;14.13;;;3.70;1.00;;;;;;4997162;28;20240;-63
2022/03/20 03:38:58;;;;;;;22.53;14.20;;;3.70;1.00;;;;;;4983469;28;20217;-63
2022/03/20 03:41:25;;;;;;;23.33;14.63;;;3.70;1.00;;;;;;4983107;28;20241;-63
2022/03/20 03:43:54;;;;;;;19.67;14.30;;;3.70;1.00;;;;;;4988717;28;20229;-63
2022/03/20 03:46:24;;;;;;;24.43;14.63;;;3.70;1.00;;;;;;4995695;28;20197;-63
2022/03/20 03:48:54;;;;;;;24.50;13.87;;;3.70;1.00;;;;;;4981450;28;20185;-62
2022/03/20 03:51:21;;;;;;;21.60;14.53;;;3.70;1.00;;;;;;4986757;28;20225;-62
2022/03/20 03:53:48;;;;;;;20.80;13.67;;;3.70;1.00;;;;;;4988730;28;20284;-63
2022/03/20 03:56:15;;;;;;;20.30;13.60;;;3.70;1.00;;;;;;4983946;28;20364;-62
2022/03/20 03:58:43;;;;;;;23.00;13.27;;;3.70;1.00;;;;;;4985034;28;20217;-62
2022/03/20 04:01:10;;;;;;;27.53;13.43;;;3.70;1.00;;;;;;4984259;28;20631;-62
2022/03/20 04:03:37;;;;;;;21.67;13.43;;;3.70;99.90;;;;;;4985018;28;20197;-62
2022/03/20 04:06:08;;;;;;;20.33;13.80;;;3.80;99.90;;;;;;4996945;28;20186;-61
2022/03/20 04:08:37;;;;;;;24.90;13.80;;;3.80;99.90;;;;;;4988634;28;20208;-62
2022/03/20 04:11:10;;;;;;;23.60;13.90;;;4.00;99.90;;;;;;4981022;28;20649;-62
2022/03/20 04:13:41;;;;;;;22.20;13.50;;;3.80;99.90;;;;;;4981981;28;20194;-63
2022/03/20 04:16:08;;;;;;;23.60;13.63;;;3.80;99.90;;;;;;4981996;28;20281;-63
2022/03/20 04:18:35;;;;;;;18.37;12.10;;;3.70;99.90;;;;;;4997081;28;20202;-62
2022/03/20 04:21:06;;;;;;;19.00;13.43;;;3.70;99.90;;;;;;4981305;28;21102;-62
2022/03/20 04:26:32;;;;;;;18.90;12.37;;;3.60;99.90;;;;;;4985391;28;20288;-62
2022/03/20 04:29:02;;;;;;;21.30;13.00;;;3.60;99.90;;;;;;4980096;28;20524;-62
2022/03/20 04:31:31;;;;;;;18.30;13.00;;;3.50;99.90;;;;;;4986944;28;20205;-61
2022/03/20 04:33:58;;;;;;;20.30;13.03;;;3.50;99.90;;;;;;4987427;28;20657;-61
2022/03/20 04:36:30;;;;;;;20.33;11.57;;;3.50;99.90;;;;;;4980889;28;20206;-61
2022/03/20 04:39:00;;;;;;;21.03;13.27;;;3.50;99.90;;;;;;4987893;28;20222;-61
2022/03/20 04:41:27;;;;;;;22.10;12.20;;;3.50;99.90;;;;;;4996049;28;20661;-62
2022/03/20 04:43:54;;;;;;;18.90;13.20;;;3.50;99.90;;;;;;4997392;28;20217;-62
2022/03/20 04:46:21;;;;;;;21.07;12.70;;;3.40;99.90;;;;;;4985605;28;20704;-61
2022/03/20 04:59:53;;;;;;;19.33;12.17;;;3.20;99.90;;;;;;4980892;28;20342;-62
2022/03/20 05:02:24;;;;;;;20.40;13.73;;;3.30;99.90;;;;;;4979902;28;20221;-62
2022/03/20 05:04:52;;;;;;;20.97;12.93;;;3.20;99.90;;;;;;4971070;28;20235;-61
2022/03/20 05:07:19;;;;;;;17.47;11.87;;;3.20;99.90;;;;;;4980111;28;20209;-62
2022/03/20 05:15:22;;;;;;;20.73;13.53;;;3.20;99.90;;;;;;4984922;28;20240;-61
2022/03/20 05:17:49;;;;;;;20.00;12.33;;;3.20;99.90;;;;;;4996110;28;20209;-61
2022/03/20 05:20:16;;;;;;;19.70;12.83;;;3.20;99.90;;;;;;4983614;28;20215;-62
2022/03/20 05:22:43;;;;;;;22.70;12.87;;;3.30;99.90;;;;;;4995334;28;20232;-62
2022/03/20 05:25:10;;;;;;;18.30;12.23;;;3.30;99.90;;;;;;4994295;28;20217;-62
2022/03/20 05:27:37;;;;;;;26.23;13.17;;;3.40;99.90;;;;;;4983914;28;20256;-62
2022/03/20 05:30:07;;;;;;;21.43;12.37;;;3.40;99.90;;;;;;4994776;28;20212;-62
2022/03/20 05:32:35;;;;;;;20.03;11.60;;;3.40;99.90;;;;;;4995341;28;20221;-62
2022/03/20 05:35:07;;;;;;;19.53;12.27;;;3.40;99.90;;;;;;4995823;28;20218;-63
2022/03/20 05:37:34;;;;;;;19.53;12.87;;;3.40;99.90;;;;;;4994919;28;20205;-62
2022/03/20 05:40:05;;;;;;;20.70;12.27;;;3.40;99.90;;;;;;4987893;28;20673;-62
2022/03/20 05:42:32;;;;;;;20.03;12.80;;;3.50;99.90;;;;;;4979932;28;20238;-62
2022/03/20 05:45:02;;;;;;;19.93;13.00;;;3.50;99.90;;;;;;4994999;28;20216;-62
2022/03/20 05:47:33;;;;;;;17.83;12.00;;;3.60;99.90;;;;;;4994613;28;20881;-62
2022/03/20 05:50:03;;;;;;;20.37;13.23;;;3.60;99.90;;;;;;4986936;28;20289;-62
2022/03/20 05:52:33;;;;;;;20.50;12.20;;;3.70;99.90;;;;;;4995525;28;20721;-62
2022/03/20 05:55:05;;;;;;;17.97;12.20;;;3.80;99.90;;;;;;4995338;28;20202;-63
2022/03/20 06:00:29;;;;;;;19.23;12.27;;;3.80;99.90;;;;;;4995787;28;20320;-62
2022/03/20 06:02:56;;;;;;;18.83;13.10;;;3.90;99.90;;;;;;4976262;28;20228;-62
2022/03/20 06:05:25;;;;;;;20.13;12.50;;;3.90;99.90;;;;;;4986228;28;20238;-62
2022/03/20 06:07:59;;;;;;;17.20;11.33;;;4.10;99.90;;;;;;5002411;28;20198;-62
2022/03/20 06:10:26;;;;;;;23.13;12.30;;;4.50;99.90;;;;;;4982109;28;20280;-62
2022/03/20 06:12:53;;;;;;;17.43;11.57;;;4.70;99.90;;;;;;4979447;28;20675;-62
2022/03/20 06:15:20;;;;;;;23.13;13.37;;;4.60;99.90;;;;;;4977926;28;20240;-62
2022/03/20 06:17:47;;;;;;;20.63;13.57;;;4.40;99.90;;;;;;4978373;28;20567;-61
2022/03/20 06:20:17;;;;;;;18.90;12.80;;;4.40;99.90;;;;;;4986681;28;20226;-61
2022/03/20 06:22:47;;;;;;;17.63;11.80;;;4.70;99.90;;;;;;4995608;28;20269;-61
2022/03/20 06:25:15;;;;;;;20.00;13.17;;;5.10;99.90;;;;;;4980091;28;20182;-62
2022/03/20 06:27:50;;;;;;;19.83;12.23;;;5.70;99.90;;;;;;4979348;28;20202;-62
2022/03/20 06:30:19;;;;;;;17.67;12.73;;;6.00;99.90;;;;;;4994331;28;20209;-62
2022/03/20 06:32:47;;;;;;;18.77;12.97;;;6.40;99.90;;;;;;4983234;28;20233;-62
2022/03/20 06:35:17;;;;;;;18.47;12.90;;;6.40;99.90;;;;;;4980483;28;20229;-61
2022/03/20 06:37:53;;;;;;;18.00;12.43;;;6.70;99.90;;;;;;4995919;28;20237;-62
2022/03/20 06:40:22;;;;;;;20.47;14.30;;;7.00;99.90;;;;;;4981389;28;20202;-63
2022/03/20 06:42:49;;;;;;;18.00;12.70;;;6.50;99.90;;;;;;4980285;28;20241;-63
2022/03/20 06:45:19;;;;;;;15.77;12.10;;;6.30;99.90;;;;;;4985711;28;20296;-62
2022/03/20 06:47:47;;;;;;;23.43;13.13;;;6.60;99.90;;;;;;4980065;28;20287;-62
2022/03/20 06:50:14;;;;;;;18.73;12.80;;;7.00;99.90;;;;;;4979428;28;20233;-63
2022/03/20 06:52:42;;;;;;;19.40;13.80;;;7.10;99.90;;;;;;4981271;28;20292;-63
2022/03/20 06:55:12;;;;;;;18.67;13.13;;;7.00;99.90;;;;;;4977877;28;20206;-62
2022/03/20 06:57:44;;;;;;;21.17;13.70;;;7.30;99.90;;;;;;4989073;28;20216;-62
2022/03/20 07:00:16;;;;;;;18.20;13.07;;;7.00;99.90;;;;;;4973557;28;20226;-62
2022/03/20 07:03:06;;;;;;;22.27;13.60;;;7.60;99.90;;;;;;4983211;28;20280;-61
2022/03/20 07:05:34;;;;;;;21.80;13.80;;;8.90;99.90;;;;;;4997177;28;20190;-61
2022/03/20 07:08:01;;;;;;;19.13;12.83;;;9.30;99.90;;;;;;4988977;28;20202;-62
2022/03/20 07:10:31;;;;;;;20.90;14.43;;;9.20;99.90;;;;;;4996944;28;20202;-63
2022/03/20 07:15:47;;;;;;;20.27;14.77;;;10.90;99.90;;;;;;4996726;28;20263;-63
2022/03/20 07:18:17;;;;;;;21.03;14.70;;;10.70;99.90;;;;;;4981845;28;20220;-62
2022/03/20 07:20:50;;;;;;;23.00;14.27;;;10.60;99.90;;;;;;4997027;28;20568;-63
2022/03/20 07:23:17;;;;;;;18.37;13.70;;;10.60;99.90;;;;;;4983476;28;20226;-63
2022/03/20 07:31:15;;;;;;;22.07;14.17;;;11.40;99.90;;;;;;4983213;28;20241;-63
2022/03/20 07:33:42;;;;;;;19.60;13.90;;;11.00;99.90;;;;;;4987429;28;20656;-62
2022/03/20 07:36:12;;;;;;;20.83;15.30;;;11.40;99.90;;;;;;5000248;28;20739;-64
2022/03/20 07:38:39;;;;;;;23.63;14.90;;;11.40;99.90;;;;;;4970877;28;20621;-63
2022/03/20 07:41:06;;;;;;;23.10;14.67;;;12.50;99.90;;;;;;4989423;28;20216;-64
2022/03/20 07:43:35;;;;;;;19.47;14.50;;;12.00;99.90;;;;;;4988104;28;20334;-62
2022/03/20 07:46:03;;;;;;;22.93;15.37;;;12.00;99.90;;;;;;4985353;28;20207;-65
2022/03/20 07:48:30;;;;;;;25.80;15.17;;;13.00;99.90;;;;;;4988247;28;20673;-63
2022/03/20 07:50:59;;;;;;;18.87;14.50;;;13.40;99.90;;;;;;4985045;28;20233;-63
2022/03/20 07:53:26;;;;;;;25.50;14.90;;;13.80;99.90;;;;;;4999950;28;20201;-65
2022/03/20 07:55:53;;;;;;;23.77;16.43;;;14.00;99.90;;;;;;4989858;28;20281;-64
2022/03/20 07:58:23;;;;;;;20.63;15.30;;;13.50;99.90;;;;;;4990184;28;20237;-64
2022/03/20 08:00:50;;;;;;;26.93;15.80;;;13.90;99.90;;;;;;4999387;28;20268;-63
2022/03/20 08:03:19;;;;;;;21.60;15.53;;;13.50;99.90;;;;;;4986808;28;20232;-63
2022/03/20 08:05:46;;;;;;;20.40;15.10;;;13.40;99.90;;;;;;4983916;28;20277;-63
2022/03/20 08:08:16;;;;;;;21.53;16.03;;;13.80;99.90;;;;;;4986094;28;20294;-63
2022/03/20 08:10:46;;;;;;;22.93;15.87;;;13.90;99.90;;;;;;4990426;28;20705;-63
2022/03/20 08:13:13;;;;;;;22.80;17.17;;;14.30;99.90;;;;;;4990706;28;20209;-63
2022/03/20 08:15:43;;;;;;;20.33;15.83;;;14.30;99.90;;;;;;4988772;28;20257;-63
2022/03/20 08:18:15;;;;;;;22.40;16.20;;;15.10;99.90;;;;;;4983490;28;20278;-63
2022/03/20 08:20:44;;;;;;;23.90;15.73;;;16.00;99.90;;;;;;4982851;28;20221;-63
2022/03/20 08:23:11;;;;;;;23.17;16.07;;;15.50;99.90;;;;;;4997053;28;20316;-64
2022/03/20 08:25:43;;;;;;;22.53;16.93;;;15.50;99.90;;;;;;4982898;28;20257;-64
2022/03/20 08:28:12;;;;;;;21.07;16.23;;;15.70;99.90;;;;;;4989418;28;20243;-63
2022/03/20 08:30:42;;;;;;;23.63;16.57;;;15.40;99.90;;;;;;4983003;28;20185;-62
2022/03/20 08:33:09;;;;;;;22.10;17.50;;;16.80;99.90;;;;;;4996114;28;20309;-64
2022/03/20 08:35:36;;;;;;;20.47;16.17;;;16.90;99.90;;;;;;4982989;28;20193;-63
2022/03/20 08:38:06;;;;;;;23.67;17.23;;;16.80;99.90;;;;;;4982700;28;20653;-62
2022/03/20 08:40:40;;;;;;;27.70;19.07;;;17.90;99.90;;;;;;4983769;28;20225;-64
2022/03/20 08:43:09;;;;;;;21.50;16.97;;;17.40;99.90;;;;;;4995687;28;20244;-62
2022/03/20 08:45:41;;;;;;;22.47;16.93;;;16.60;99.90;;;;;;4982379;28;20237;-62
2022/03/20 08:48:11;;;;;;;24.23;18.13;;;15.40;99.90;;;;;;4982564;28;20537;-63
2022/03/20 08:50:38;;;;;;;23.53;17.93;;;15.50;99.90;;;;;;4999033;28;20257;-62
2022/03/20 08:53:06;;;;;;;21.50;17.07;;;14.80;99.90;;;;;;4999630;28;20747;-62
2022/03/20 08:55:33;;;;;;;22.77;16.67;;;15.70;99.90;;;;;;4998698;28;20281;-62
2022/03/20 08:58:04;;;;;;;25.60;17.27;;;14.80;99.90;;;;;;4984870;28;20575;-63
2022/03/20 09:00:33;;;;;;;23.60;17.07;;;14.70;99.90;;;;;;4988188;28;20202;-63
2022/03/20 09:03:03;;;;;;;23.73;17.70;;;15.90;99.90;;;;;;4998145;28;20255;-64
2022/03/20 09:05:32;;;;;;;26.23;18.93;;;16.00;99.90;;;;;;5000337;28;20289;-64
2022/03/20 09:08:02;;;;;;;24.77;18.40;;;14.50;99.90;;;;;;4998604;28;20221;-64
2022/03/20 09:10:29;;;;;;;27.60;19.00;;;13.30;99.90;;;;;;4998454;28;20240;-64
2022/03/20 09:13:00;;;;;;;25.50;18.50;;;12.80;99.90;;;;;;4998933;28;20195;-64
2022/03/20 09:15:29;;;;;;;24.97;18.83;;;13.40;99.90;;;;;;4988230;28;20541;-64
2022/03/20 09:20:43;;;;;;;22.03;17.30;;;13.10;99.90;;;;;;4990561;28;20248;-63
2022/03/20 09:23:14;;;;;;;29.17;18.77;;;14.50;99.90;;;;;;4998196;28;20288;-63
2022/03/20 09:25:41;;;;;;;24.53;18.13;;;16.70;99.90;;;;;;4983540;28;20237;-63
2022/03/20 09:28:10;;;;;;;26.67;20.13;;;17.30;99.90;;;;;;4989441;28;20252;-64
2022/03/20 09:30:39;;;;;;;27.33;20.43;;;14.90;99.90;;;;;;4988015;28;20312;-64
2022/03/20 09:33:10;;;;;;;27.53;19.13;;;12.20;99.90;;;;;;4998350;28;20220;-63
2022/03/20 09:35:38;;;;;;;23.40;19.00;;;11.60;99.90;;;;;;4998236;28;20293;-64
2022/03/20 09:38:09;;;;;;;26.80;17.50;;;13.20;99.90;;;;;;4997792;28;20225;-65
2022/03/20 09:40:39;;;;;;;25.87;19.23;;;16.00;99.90;;;;;;4997202;28;20194;-63
2022/03/20 09:43:06;;;;;;;29.00;19.23;;;17.60;99.90;;;;;;4988449;28;20355;-63
2022/03/20 09:45:38;;;;;;;23.27;19.25;;;18.20;99.90;;;;;;4986651;28;20190;-65
2022/03/20 09:48:06;;;;;;;26.42;19.67;;;20.40;99.90;;;;;;4981200;28;20197;-64
2022/03/20 09:50:36;;;;;;;24.40;19.38;;;18.10;99.90;;;;;;4995959;28;20359;-63
2022/03/20 09:53:03;;;;;;;24.92;19.45;;;15.40;99.90;;;;;;4998358;28;20232;-65
2022/03/20 09:55:31;;;;;;;29.00;20.40;;;16.80;99.90;;;;;;4982324;28;20829;-63
2022/03/20 09:58:01;;;;;;;26.33;20.23;;;18.20;99.90;;;;;;4982498;28;20220;-64
2022/03/20 10:00:32;;;;;;;28.73;20.85;;;17.40;99.90;;;;;;4983799;28;20200;-63
2022/03/20 10:03:17;;;;;;;25.85;20.77;;;17.00;99.90;;;;;;4982584;28;20198;-63
2022/03/20 10:06:02;;;;;;;26.03;19.53;;;16.30;99.90;;;;;;4999787;28;20195;-64
2022/03/20 10:08:30;;;;;;;28.03;20.90;;;15.30;99.90;;;;;;4971715;28;20257;-63
2022/03/20 10:11:16;;;;;;;28.83;21.00;;;14.90;99.90;;;;;;4998502;28;20201;-63
2022/03/20 10:14:04;;;;;;;29.03;20.87;;;13.70;99.90;;;;;;4981840;28;20228;-64
2022/03/20 10:16:31;;;;;;;27.43;20.47;;;13.90;99.90;;;;;;4983988;28;20241;-64
2022/03/20 10:19:00;;;;;;;27.60;21.30;;;14.30;99.90;;;;;;4980352;28;20661;-63
2022/03/20 10:21:46;;;;;;;28.13;21.37;;;14.30;99.90;;;;;;4994902;28;20260;-63
2022/03/20 10:24:20;;;;;;;28.57;20.40;;;15.60;99.90;;;;;;4985790;28;20322;-63
2022/03/20 10:26:52;;;;;;;25.00;19.53;;;16.50;99.90;;;;;;4987851;28;20214;-65
2022/03/20 10:29:24;;;;;;;29.10;21.17;;;17.20;99.90;;;;;;4987041;28;20724;-63
2022/03/20 10:31:56;;;;;;;26.50;20.10;;;17.10;99.90;;;;;;4985582;28;20189;-63
2022/03/20 10:34:23;;;;;;;30.23;21.10;;;16.70;99.90;;;;;;4985273;28;20284;-64
2022/03/20 10:36:53;;;;;;;28.27;21.07;;;16.70;99.90;;;;;;4991829;28;20213;-64
2022/03/20 10:39:25;;;;;;;27.17;20.90;;;14.90;99.90;;;;;;4988512;28;20213;-63
2022/03/20 10:41:54;;;;;;;27.13;21.37;;;13.60;99.90;;;;;;5002698;28;20244;-64
2022/03/20 10:44:38;;;;;;;26.37;21.10;;;13.40;99.90;;;;;;4985387;28;20214;-63
2022/03/20 10:47:16;;;;;;;27.40;20.43;;;13.60;99.90;;;;;;4987143;28;20207;-64
2022/03/20 10:49:52;;;;;;;27.17;20.73;;;13.60;99.90;;;;;;4990188;28;20197;-63
2022/03/20 10:52:21;;;;;;;27.13;21.17;;;13.80;99.90;;;;;;5002225;28;20210;-63
2022/03/20 10:54:54;;;;;;;27.37;20.17;;;13.30;99.90;;;;;;4986840;28;20203;-64
2022/03/20 10:57:30;;;;;;;25.43;20.30;;;12.90;99.90;;;;;;4985334;28;20288;-64
2022/03/20 11:00:02;;;;;;;33.00;21.43;;;12.80;99.90;;;;;;5001125;28;20303;-63
2022/03/20 11:02:37;;;;;;;37.30;20.97;;;12.90;99.90;;;;;;4981816;28;20216;-63
2022/03/20 11:05:04;;;;;;;29.17;20.83;;;13.90;99.90;;;;;;4986433;28;20253;-64
2022/03/20 11:07:33;;;;;;;28.73;21.27;;;14.60;99.90;;;;;;4985838;28;20252;-64
2022/03/20 11:10:02;;;;;;;28.27;21.70;;;15.60;99.90;;;;;;5001172;28;20198;-63
2022/03/20 11:12:32;;;;;;;30.57;21.93;;;15.50;99.90;;;;;;4985526;28;20260;-63
2022/03/20 11:15:04;;;;;;;28.17;20.15;;;16.40;99.90;;;;;;4990232;28;20292;-63
2022/03/20 11:17:43;;;;;;;27.30;20.73;;;16.70;99.90;;;;;;4984623;28;20195;-64
2022/03/20 11:20:13;;;;;;;25.85;20.15;;;17.50;99.90;;;;;;4979717;28;20209;-66
2022/03/20 11:23:04;;;;;;;28.58;21.80;;;18.00;99.90;;;;;;4986533;28;20225;-65
2022/03/20 11:25:35;;;;;;;27.85;21.65;;;17.70;99.90;;;;;;4982120;28;20217;-65
2022/03/20 11:28:07;;;;;;;26.15;20.63;;;16.60;99.90;;;;;;4999206;28;20202;-64
2022/03/20 11:30:35;;;;;;;26.00;20.23;;;16.10;99.90;;;;;;4981521;28;20212;-65
2022/03/20 11:33:04;;;;;;;25.48;19.75;;;16.30;99.90;;;;;;4981528;28;20265;-64
2022/03/20 11:35:33;;;;;;;28.70;21.40;;;16.10;99.90;;;;;;4985535;28;20251;-63
2022/03/20 11:38:24;;;;;;;28.60;22.20;;;15.30;99.90;;;;;;4995967;28;20194;-64
2022/03/20 11:41:05;;;;;;;27.60;22.70;;;15.00;99.90;;;;;;4994049;28;20193;-63
2022/03/20 11:43:34;;;;;;;29.10;22.27;;;14.90;99.90;;;;;;4981777;28;20264;-66
2022/03/20 11:46:28;;;;;;;29.57;22.53;;;15.30;99.90;;;;;;4984013;28;20178;-62
2022/03/20 11:49:17;;;;;;;30.27;22.70;;;14.90;99.90;;;;;;4970363;28;20203;-63
2022/03/20 11:52:01;;;;;;;26.80;21.70;;;15.00;99.90;;;;;;4979793;28;20667;-63
2022/03/20 11:54:41;;;;;;;31.45;21.45;;;14.80;99.90;;;;;;4980781;28;20685;-63
2022/03/20 11:57:26;;;;;;;33.93;21.33;;;14.90;99.90;;;;;;4980096;28;20725;-63
2022/03/20 12:00:13;;;;;;;29.17;22.20;;;14.90;99.90;;;;;;4983979;28;20214;-62
2022/03/20 12:03:09;;;;;;;29.07;22.50;;;15.30;99.90;;;;;;4982387;28;20321;-62
2022/03/20 12:06:02;;;;;;;30.00;21.92;;;15.70;99.90;;;;;;4983299;28;20260;-62
2022/03/20 12:09:10;;;;;;;28.15;21.92;;;15.50;99.90;;;;;;4985316;28;20205;-62
2022/03/20 12:12:09;;;;;;;29.43;21.27;;;15.70;99.90;;;;;;4987111;28;20865;-62
2022/03/20 12:14:41;;;;;;;30.75;22.45;;;15.30;99.90;;;;;;5013506;28;20288;-62
2022/03/20 12:17:09;;;;;;;29.48;22.23;;;15.60;99.90;;;;;;4981915;28;20205;-63
2022/03/20 12:19:42;;;;;;;25.88;21.63;;;15.30;99.90;;;;;;4983506;28;20371;-62
2022/03/20 12:22:19;;;;;;;30.48;22.83;;;16.00;99.90;;;;;;4983018;28;20221;-62
2022/03/20 12:24:58;;;;;;;29.88;22.80;;;16.10;99.90;;;;;;4981242;28;20255;-63
2022/03/20 12:27:26;;;;;;;29.70;22.25;;;15.60;99.90;;;;;;4982218;28;20285;-62
2022/03/20 12:30:21;;;;;;;28.35;21.60;;;15.80;99.90;;;;;;4979288;28;20815;-62
2022/03/20 12:32:48;;;;;;;28.50;22.05;;;15.60;99.90;;;;;;4983836;28;20205;-62
2022/03/20 12:35:22;;;;;;;30.10;22.95;;;15.70;99.90;;;;;;4986336;28;20316;-63
2022/03/20 12:37:53;;;;;;;26.75;22.00;;;15.80;99.90;;;;;;4979677;28;20212;-62
2022/03/20 12:40:30;;;;;;;34.33;21.73;;;15.60;99.90;;;;;;4966514;28;20301;-62
2022/03/20 12:43:15;;;;;;;26.88;21.85;;;15.50;99.90;;;;;;4977769;28;20799;-61
2022/03/20 12:45:48;;;;;;;26.97;21.50;;;15.50;99.90;;;;;;4964820;28;20264;-63
2022/03/20 12:48:18;;;;;;;28.20;22.03;;;15.50;99.90;;;;;;4968860;28;20195;-62
2022/03/20 12:50:47;;;;;;;31.70;23.20;;;15.70;99.90;;;;;;4996197;28;20284;-62
2022/03/20 12:53:21;;;;;;;29.83;23.03;;;16.10;99.90;;;;;;4980214;28;20197;-62
2022/03/20 12:55:56;;;;;;;32.70;24.42;;;16.00;99.90;;;;;;4978755;28;20197;-62
2022/03/20 12:58:24;;;;;;;31.30;24.27;;;15.80;99.90;;;;;;4966419;28;20223;-62
2022/03/20 13:00:58;;;;;;;29.98;22.58;;;16.00;99.90;;;;;;4978082;28;20264;-61
2022/03/20 13:03:29;;;;;;;29.50;22.50;;;16.10;99.90;;;;;;4979529;28;20574;-61
2022/03/20 13:06:03;;;;;;;29.48;23.25;;;16.00;99.90;;;;;;4981044;28;20194;-62
2022/03/20 13:08:38;;;;;;;30.05;23.38;;;15.90;99.90;;;;;;4981770;28;20187;-62
2022/03/20 13:11:48;;;;;;;28.63;23.50;;;16.10;99.90;;;;;;4978893;28;20609;-62
2022/03/20 13:14:01;;;;;;;30.07;23.27;;;15.80;99.90;;;;;;4997025;28;20225;-63
2022/03/20 13:16:29;;;;;;;29.42;23.60;;;15.50;99.90;;;;;;4984884;28;20679;-63
2022/03/20 13:18:58;;;;;;;27.63;22.20;;;16.00;99.90;;;;;;4980204;28;20190;-63
2022/03/20 13:21:26;;;;;;;29.97;22.47;;;15.60;99.90;;;;;;4978003;28;21113;-63
2022/03/20 13:23:53;;;;;;;29.97;24.83;;;15.70;99.90;;;;;;4980311;28;20316;-63
2022/03/20 13:26:22;;;;;;;32.70;24.30;;;15.70;99.90;;;;;;4983236;28;20202;-62
2022/03/20 13:28:52;;;;;;;27.73;22.70;;;15.70;99.90;;;;;;4977479;28;20205;-62
2022/03/20 13:31:21;;;;;;;33.00;22.73;;;15.80;99.90;;;;;;4981977;28;20578;-62
2022/03/20 13:33:57;;;;;;;28.27;21.17;;;15.90;99.90;;;;;;4983213;28;20205;-62